sensor_id;sensor_type;location;lat;lon;timestamp;temperature;humidity
68276;DHT22;55106;51.438;-0.098;2022-10-18T00:01:08;8.26;99.99
68276;DHT22;55106;51.438;-0.098;2022-10-18T00:03:35;8.28;99.99
68276;DHT22;55106;51.438;-0.098;2022-10-18T00:06:01;8.29;99.99
68276;DHT22;55106;51.438;-0.098;2022-10-18T00:08:27;8.28;99.99
68276;DHT22;55106;51.438;-0.098;2022-10-18T00:10:53;8.20;99.99
68276;DHT22;55106;51.438;-0.098;2022-10-18T00:13:20;8.29;99.99
68276;DHT22;55106;51.438;-0.098;2022-10-18T00:15:51;8.15;99.99
68276;DHT22;55106;51.438;-0.098;2022-10-18T00:18:17;8.24;99.99
68276;DHT22;55106;51.438;-0.098;2022-10-18T00:20:43;8.31;99.99
68276;DHT22;55106;51.438;-0.098;2022-10-18T00:23:08;8.25;99.99
68276;DHT22;55106;51.438;-0.098;2022-10-18T00:25:34;8.16;99.99
68276;DHT22;55106;51.438;-0.098;2022-10-18T00:27:59;8.09;99.99
68276;DHT22;55106;51.438;-0.098;2022-10-18T00:30:24;8.08;99.99
68276;DHT22;55106;51.438;-0.098;2022-10-18T00:32:50;8.05;99.99
68276;DHT22;55106;51.438;-0.098;2022-10-18T00:35:15;8.05;99.99
68276;DHT22;55106;51.438;-0.098;2022-10-18T00:37:41;7.99;99.99
68276;DHT22;55106;51.438;-0.098;2022-10-18T00:40:07;7.94;99.99
68276;DHT22;55106;51.438;-0.098;2022-10-18T00:42:34;7.99;99.99
68276;DHT22;55106;51.438;-0.098;2022-10-18T00:45:14;7.88;99.99
68276;DHT22;55106;51.438;-0.098;2022-10-18T00:47:43;7.91;99.99
68276;DHT22;55106;51.438;-0.098;2022-10-18T00:50:09;7.91;99.99
68276;DHT22;55106;51.438;-0.098;2022-10-18T00:52:39;7.98;99.99
68276;DHT22;55106;51.438;-0.098;2022-10-18T00:55:07;8.16;99.99
68276;DHT22;55106;51.438;-0.098;2022-10-18T00:57:33;8.16;99.99
68276;DHT22;55106;51.438;-0.098;2022-10-18T00:59:58;8.02;99.99
68276;DHT22;55106;51.438;-0.098;2022-10-18T01:02:25;7.93;99.99
68276;DHT22;55106;51.438;-0.098;2022-10-18T01:04:50;7.91;99.99
68276;DHT22;55106;51.438;-0.098;2022-10-18T01:08:18;7.84;99.99
68276;DHT22;55106;51.438;-0.098;2022-10-18T01:10:33;7.77;99.99
68276;DHT22;55106;51.438;-0.098;2022-10-18T01:16:15;7.78;99.99
68276;DHT22;55106;51.438;-0.098;2022-10-18T01:32:53;7.76;99.99
68276;DHT22;55106;51.438;-0.098;2022-10-18T01:35:28;7.69;99.99
68276;DHT22;55106;51.438;-0.098;2022-10-18T01:37:59;7.67;99.99
68276;DHT22;55106;51.438;-0.098;2022-10-18T01:40:28;7.60;99.99
68276;DHT22;55106;51.438;-0.098;2022-10-18T01:42:54;7.57;99.99
68276;DHT22;55106;51.438;-0.098;2022-10-18T01:45:20;7.69;99.99
68276;DHT22;55106;51.438;-0.098;2022-10-18T01:47:47;7.71;99.99
68276;DHT22;55106;51.438;-0.098;2022-10-18T01:50:14;7.66;99.99
68276;DHT22;55106;51.438;-0.098;2022-10-18T01:52:49;7.53;99.99
68276;DHT22;55106;51.438;-0.098;2022-10-18T01:55:16;7.52;99.99
68276;DHT22;55106;51.438;-0.098;2022-10-18T02:00:40;7.90;99.99
68276;DHT22;55106;51.438;-0.098;2022-10-18T02:03:22;7.95;99.99
68276;DHT22;55106;51.438;-0.098;2022-10-18T02:05:55;7.81;99.99
68276;DHT22;55106;51.438;-0.098;2022-10-18T02:08:38;7.73;99.99
68276;DHT22;55106;51.438;-0.098;2022-10-18T02:11:12;7.65;99.99
68276;DHT22;55106;51.438;-0.098;2022-10-18T02:13:58;7.55;99.99
68276;DHT22;55106;51.438;-0.098;2022-10-18T02:16:28;7.60;99.99
68276;DHT22;55106;51.438;-0.098;2022-10-18T02:19:23;7.47;99.99
68276;DHT22;55106;51.438;-0.098;2022-10-18T02:21:50;7.42;99.99
68276;DHT22;55106;51.438;-0.098;2022-10-18T02:24:18;7.39;99.99
68276;DHT22;55106;51.438;-0.098;2022-10-18T02:26:44;7.38;99.99
68276;DHT22;55106;51.438;-0.098;2022-10-18T02:29:10;7.33;99.99
68276;DHT22;55106;51.438;-0.098;2022-10-18T02:34:07;7.29;99.99
68276;DHT22;55106;51.438;-0.098;2022-10-18T02:36:41;7.22;99.99
68276;DHT22;55106;51.438;-0.098;2022-10-18T02:39:13;7.20;99.99
68276;DHT22;55106;51.438;-0.098;2022-10-18T02:41:40;7.23;99.99
68276;DHT22;55106;51.438;-0.098;2022-10-18T02:44:05;7.22;99.99
68276;DHT22;55106;51.438;-0.098;2022-10-18T02:46:32;7.16;99.99
68276;DHT22;55106;51.438;-0.098;2022-10-18T02:48:58;7.25;99.99
68276;DHT22;55106;51.438;-0.098;2022-10-18T02:51:23;7.15;99.99
68276;DHT22;55106;51.438;-0.098;2022-10-18T02:53:49;7.14;99.99
68276;DHT22;55106;51.438;-0.098;2022-10-18T02:56:14;7.08;99.99
68276;DHT22;55106;51.438;-0.098;2022-10-18T02:58:40;7.14;99.99
68276;DHT22;55106;51.438;-0.098;2022-10-18T03:01:06;7.28;99.99
68276;DHT22;55106;51.438;-0.098;2022-10-18T03:03:31;7.25;99.99
68276;DHT22;55106;51.438;-0.098;2022-10-18T03:05:57;7.20;99.99
68276;DHT22;55106;51.438;-0.098;2022-10-18T03:08:23;7.22;99.99
68276;DHT22;55106;51.438;-0.098;2022-10-18T03:10:48;7.43;99.99
68276;DHT22;55106;51.438;-0.098;2022-10-18T03:13:14;7.45;99.99
68276;DHT22;55106;51.438;-0.098;2022-10-18T03:15:39;7.30;99.99
68276;DHT22;55106;51.438;-0.098;2022-10-18T03:18:05;7.25;99.99
68276;DHT22;55106;51.438;-0.098;2022-10-18T03:20:30;7.18;99.99
68276;DHT22;55106;51.438;-0.098;2022-10-18T03:22:56;7.11;99.99
68276;DHT22;55106;51.438;-0.098;2022-10-18T03:25:21;7.11;99.99
68276;DHT22;55106;51.438;-0.098;2022-10-18T03:27:46;7.07;99.99
68276;DHT22;55106;51.438;-0.098;2022-10-18T03:30:12;7.08;99.99
68276;DHT22;55106;51.438;-0.098;2022-10-18T03:32:38;7.07;99.99
68276;DHT22;55106;51.438;-0.098;2022-10-18T03:35:05;7.04;99.99
68276;DHT22;55106;51.438;-0.098;2022-10-18T03:37:30;7.01;99.99
68276;DHT22;55106;51.438;-0.098;2022-10-18T03:39:55;6.97;99.99
68276;DHT22;55106;51.438;-0.098;2022-10-18T03:42:21;6.95;99.99
68276;DHT22;55106;51.438;-0.098;2022-10-18T03:44:46;6.92;99.99
68276;DHT22;55106;51.438;-0.098;2022-10-18T03:47:12;6.92;99.99
68276;DHT22;55106;51.438;-0.098;2022-10-18T03:49:37;6.87;99.99
68276;DHT22;55106;51.438;-0.098;2022-10-18T03:52:03;6.85;99.99
68276;DHT22;55106;51.438;-0.098;2022-10-18T03:54:28;6.80;99.99
68276;DHT22;55106;51.438;-0.098;2022-10-18T03:56:54;6.92;99.99
68276;DHT22;55106;51.438;-0.098;2022-10-18T03:59:19;6.91;99.99
68276;DHT22;55106;51.438;-0.098;2022-10-18T04:01:44;6.84;99.99
68276;DHT22;55106;51.438;-0.098;2022-10-18T04:04:10;6.81;99.99
68276;DHT22;55106;51.438;-0.098;2022-10-18T04:06:35;6.78;99.99
68276;DHT22;55106;51.438;-0.098;2022-10-18T04:09:00;6.84;99.99
68276;DHT22;55106;51.438;-0.098;2022-10-18T04:11:26;6.77;99.99
68276;DHT22;55106;51.438;-0.098;2022-10-18T04:13:51;6.70;99.99
68276;DHT22;55106;51.438;-0.098;2022-10-18T04:16:16;6.67;99.99
68276;DHT22;55106;51.438;-0.098;2022-10-18T04:18:42;6.67;99.99
68276;DHT22;55106;51.438;-0.098;2022-10-18T04:21:07;6.61;99.99
68276;DHT22;55106;51.438;-0.098;2022-10-18T04:23:32;6.54;99.99
68276;DHT22;55106;51.438;-0.098;2022-10-18T04:25:58;6.71;99.99
68276;DHT22;55106;51.438;-0.098;2022-10-18T04:28:23;6.60;99.99
68276;DHT22;55106;51.438;-0.098;2022-10-18T04:30:52;6.69;99.99
68276;DHT22;55106;51.438;-0.098;2022-10-18T04:33:18;6.83;99.99
68276;DHT22;55106;51.438;-0.098;2022-10-18T04:35:44;6.77;99.99
68276;DHT22;55106;51.438;-0.098;2022-10-18T04:38:09;6.67;99.99
68276;DHT22;55106;51.438;-0.098;2022-10-18T04:40:34;6.61;99.99
68276;DHT22;55106;51.438;-0.098;2022-10-18T04:43:00;6.60;99.99
68276;DHT22;55106;51.438;-0.098;2022-10-18T04:45:26;6.63;99.99
68276;DHT22;55106;51.438;-0.098;2022-10-18T04:47:51;6.60;99.99
68276;DHT22;55106;51.438;-0.098;2022-10-18T04:50:17;6.53;99.99
68276;DHT22;55106;51.438;-0.098;2022-10-18T04:52:42;6.47;99.99
68276;DHT22;55106;51.438;-0.098;2022-10-18T04:55:07;6.49;99.99
68276;DHT22;55106;51.438;-0.098;2022-10-18T04:57:33;6.44;99.99
68276;DHT22;55106;51.438;-0.098;2022-10-18T04:59:58;6.42;99.99
68276;DHT22;55106;51.438;-0.098;2022-10-18T05:02:24;6.49;99.99
68276;DHT22;55106;51.438;-0.098;2022-10-18T05:04:50;6.77;99.99
68276;DHT22;55106;51.438;-0.098;2022-10-18T05:07:15;6.87;99.99
68276;DHT22;55106;51.438;-0.098;2022-10-18T05:09:41;6.94;99.99
68276;DHT22;55106;51.438;-0.098;2022-10-18T05:12:06;6.73;99.99
68276;DHT22;55106;51.438;-0.098;2022-10-18T05:14:32;6.61;99.99
68276;DHT22;55106;51.438;-0.098;2022-10-18T05:16:57;6.56;99.99
68276;DHT22;55106;51.438;-0.098;2022-10-18T05:19:23;6.49;99.99
68276;DHT22;55106;51.438;-0.098;2022-10-18T05:21:48;6.44;99.99
68276;DHT22;55106;51.438;-0.098;2022-10-18T05:24:14;6.37;99.99
68276;DHT22;55106;51.438;-0.098;2022-10-18T05:26:39;6.30;99.99
68276;DHT22;55106;51.438;-0.098;2022-10-18T05:29:05;6.37;99.99
68276;DHT22;55106;51.438;-0.098;2022-10-18T05:31:30;6.28;99.99
68276;DHT22;55106;51.438;-0.098;2022-10-18T05:33:55;6.26;99.99
68276;DHT22;55106;51.438;-0.098;2022-10-18T05:36:21;6.22;99.99
68276;DHT22;55106;51.438;-0.098;2022-10-18T05:38:46;6.29;99.99
68276;DHT22;55106;51.438;-0.098;2022-10-18T05:41:13;6.22;99.99
68276;DHT22;55106;51.438;-0.098;2022-10-18T05:43:39;6.18;99.99
68276;DHT22;55106;51.438;-0.098;2022-10-18T05:46:04;6.18;99.99
68276;DHT22;55106;51.438;-0.098;2022-10-18T05:48:32;6.26;99.99
68276;DHT22;55106;51.438;-0.098;2022-10-18T05:50:58;6.18;99.99
68276;DHT22;55106;51.438;-0.098;2022-10-18T05:53:24;6.12;99.99
68276;DHT22;55106;51.438;-0.098;2022-10-18T05:55:49;6.08;99.99
68276;DHT22;55106;51.438;-0.098;2022-10-18T05:58:15;6.05;99.99
68276;DHT22;55106;51.438;-0.098;2022-10-18T06:00:40;5.99;99.99
68276;DHT22;55106;51.438;-0.098;2022-10-18T06:03:06;6.01;99.99
68276;DHT22;55106;51.438;-0.098;2022-10-18T06:05:32;5.99;99.99
68276;DHT22;55106;51.438;-0.098;2022-10-18T06:07:57;5.95;99.99
68276;DHT22;55106;51.438;-0.098;2022-10-18T06:10:23;5.99;99.99
68276;DHT22;55106;51.438;-0.098;2022-10-18T06:12:48;6.09;99.99
68276;DHT22;55106;51.438;-0.098;2022-10-18T06:15:14;5.99;99.99
68276;DHT22;55106;51.438;-0.098;2022-10-18T06:17:39;6.02;99.99
68276;DHT22;55106;51.438;-0.098;2022-10-18T06:20:05;6.01;99.99
68276;DHT22;55106;51.438;-0.098;2022-10-18T06:22:31;5.94;99.99
68276;DHT22;55106;51.438;-0.098;2022-10-18T06:24:57;5.92;99.99
68276;DHT22;55106;51.438;-0.098;2022-10-18T06:27:22;5.94;99.99
68276;DHT22;55106;51.438;-0.098;2022-10-18T06:29:47;6.11;99.99
68276;DHT22;55106;51.438;-0.098;2022-10-18T06:32:13;6.08;99.99
68276;DHT22;55106;51.438;-0.098;2022-10-18T06:34:38;6.15;99.99
68276;DHT22;55106;51.438;-0.098;2022-10-18T06:37:04;6.06;99.99
68276;DHT22;55106;51.438;-0.098;2022-10-18T06:39:29;6.05;99.99
68276;DHT22;55106;51.438;-0.098;2022-10-18T06:41:54;6.01;99.99
68276;DHT22;55106;51.438;-0.098;2022-10-18T06:44:20;6.01;99.99
68276;DHT22;55106;51.438;-0.098;2022-10-18T06:46:47;6.11;99.99
68276;DHT22;55106;51.438;-0.098;2022-10-18T06:49:13;6.12;99.99
68276;DHT22;55106;51.438;-0.098;2022-10-18T06:51:40;6.13;99.99
68276;DHT22;55106;51.438;-0.098;2022-10-18T06:54:05;6.16;99.99
68276;DHT22;55106;51.438;-0.098;2022-10-18T06:56:31;6.18;99.99
68276;DHT22;55106;51.438;-0.098;2022-10-18T06:58:56;6.22;99.99
68276;DHT22;55106;51.438;-0.098;2022-10-18T07:01:22;6.33;99.99
68276;DHT22;55106;51.438;-0.098;2022-10-18T07:03:48;6.36;99.99
68276;DHT22;55106;51.438;-0.098;2022-10-18T07:06:17;6.44;99.99
68276;DHT22;55106;51.438;-0.098;2022-10-18T07:08:43;6.49;99.99
68276;DHT22;55106;51.438;-0.098;2022-10-18T07:11:14;6.54;99.99
68276;DHT22;55106;51.438;-0.098;2022-10-18T07:13:40;6.66;99.99
68276;DHT22;55106;51.438;-0.098;2022-10-18T07:18:40;7.04;99.99
68276;DHT22;55106;51.438;-0.098;2022-10-18T07:21:08;7.30;99.99
68276;DHT22;55106;51.438;-0.098;2022-10-18T07:23:35;7.47;99.99
68276;DHT22;55106;51.438;-0.098;2022-10-18T07:26:03;7.57;99.99
68276;DHT22;55106;51.438;-0.098;2022-10-18T07:28:35;7.69;99.99
68276;DHT22;55106;51.438;-0.098;2022-10-18T07:31:04;7.80;99.99
68276;DHT22;55106;51.438;-0.098;2022-10-18T07:33:29;7.86;99.99
68276;DHT22;55106;51.438;-0.098;2022-10-18T07:35:54;8.02;99.99
68276;DHT22;55106;51.438;-0.098;2022-10-18T07:38:20;8.25;99.99
68276;DHT22;55106;51.438;-0.098;2022-10-18T07:40:46;8.32;99.99
68276;DHT22;55106;51.438;-0.098;2022-10-18T07:43:12;8.43;99.99
68276;DHT22;55106;51.438;-0.098;2022-10-18T07:45:37;8.59;99.99
68276;DHT22;55106;51.438;-0.098;2022-10-18T07:48:03;8.76;99.99
68276;DHT22;55106;51.438;-0.098;2022-10-18T07:50:28;9.17;99.99
68276;DHT22;55106;51.438;-0.098;2022-10-18T07:52:54;9.60;99.72
68276;DHT22;55106;51.438;-0.098;2022-10-18T07:55:19;9.73;99.65
68276;DHT22;55106;51.438;-0.098;2022-10-18T07:57:44;9.76;99.05
68276;DHT22;55106;51.438;-0.098;2022-10-18T08:00:10;9.87;98.58
68276;DHT22;55106;51.438;-0.098;2022-10-18T08:02:35;10.21;98.32
68276;DHT22;55106;51.438;-0.098;2022-10-18T08:05:01;10.73;98.25
68276;DHT22;55106;51.438;-0.098;2022-10-18T08:07:26;11.43;96.85
68276;DHT22;55106;51.438;-0.098;2022-10-18T08:09:51;11.55;94.55
68276;DHT22;55106;51.438;-0.098;2022-10-18T08:12:17;11.58;95.41
68276;DHT22;55106;51.438;-0.098;2022-10-18T08:14:42;11.45;96.07
68276;DHT22;55106;51.438;-0.098;2022-10-18T08:17:08;11.64;96.23
68276;DHT22;55106;51.438;-0.098;2022-10-18T08:19:33;11.64;96.22
68276;DHT22;55106;51.438;-0.098;2022-10-18T08:21:59;11.81;96.11
68276;DHT22;55106;51.438;-0.098;2022-10-18T08:24:25;11.93;95.72
68276;DHT22;55106;51.438;-0.098;2022-10-18T08:26:51;11.96;95.14
68276;DHT22;55106;51.438;-0.098;2022-10-18T08:29:16;11.98;94.67
68276;DHT22;55106;51.438;-0.098;2022-10-18T08:31:41;11.83;94.31
68276;DHT22;55106;51.438;-0.098;2022-10-18T08:34:07;11.82;95.22
68276;DHT22;55106;51.438;-0.098;2022-10-18T08:36:32;12.25;94.72
68276;DHT22;55106;51.438;-0.098;2022-10-18T08:38:58;12.46;93.24
68276;DHT22;55106;51.438;-0.098;2022-10-18T08:44:22;12.98;92.55
68276;DHT22;55106;51.438;-0.098;2022-10-18T08:46:51;13.59;90.50
68276;DHT22;55106;51.438;-0.098;2022-10-18T08:49:23;13.74;89.03
68276;DHT22;55106;51.438;-0.098;2022-10-18T08:51:51;14.11;87.93
68276;DHT22;55106;51.438;-0.098;2022-10-18T08:57:02;15.61;81.72
68276;DHT22;55106;51.438;-0.098;2022-10-18T08:59:39;16.48;79.55
68276;DHT22;55106;51.438;-0.098;2022-10-18T09:02:15;17.06;76.55
68276;DHT22;55106;51.438;-0.098;2022-10-18T09:13:15;17.33;72.70
68276;DHT22;55106;51.438;-0.098;2022-10-18T09:15:54;17.19;74.11
68276;DHT22;55106;51.438;-0.098;2022-10-18T09:18:33;17.88;71.45
68276;DHT22;55106;51.438;-0.098;2022-10-18T09:21:06;17.79;71.09
68276;DHT22;55106;51.438;-0.098;2022-10-18T09:24:09;17.27;71.27
68276;DHT22;55106;51.438;-0.098;2022-10-18T09:26:43;18.01;70.22
68276;DHT22;55106;51.438;-0.098;2022-10-18T09:35:12;18.71;68.66
68276;DHT22;55106;51.438;-0.098;2022-10-18T09:37:39;19.08;67.91
68276;DHT22;55106;51.438;-0.098;2022-10-18T09:40:32;18.91;68.99
68276;DHT22;55106;51.438;-0.098;2022-10-18T09:43:05;18.21;67.93
68276;DHT22;55106;51.438;-0.098;2022-10-18T09:45:34;18.30;68.52
68276;DHT22;55106;51.438;-0.098;2022-10-18T09:48:12;17.31;69.89
68276;DHT22;55106;51.438;-0.098;2022-10-18T09:51:02;17.77;69.96
68276;DHT22;55106;51.438;-0.098;2022-10-18T09:53:43;18.08;69.28
68276;DHT22;55106;51.438;-0.098;2022-10-18T09:56:19;18.13;69.10
68276;DHT22;55106;51.438;-0.098;2022-10-18T09:58:48;18.77;65.99
68276;DHT22;55106;51.438;-0.098;2022-10-18T10:01:24;18.49;68.00
68276;DHT22;55106;51.438;-0.098;2022-10-18T10:03:51;19.37;64.96
68276;DHT22;55106;51.438;-0.098;2022-10-18T10:06:26;18.78;67.12
68276;DHT22;55106;51.438;-0.098;2022-10-18T10:09:04;19.04;66.24
68276;DHT22;55106;51.438;-0.098;2022-10-18T10:11:36;19.28;63.98
68276;DHT22;55106;51.438;-0.098;2022-10-18T10:14:28;18.91;64.27
68276;DHT22;55106;51.438;-0.098;2022-10-18T10:16:58;18.84;64.60
68276;DHT22;55106;51.438;-0.098;2022-10-18T10:20:13;18.67;65.38
68276;DHT22;55106;51.438;-0.098;2022-10-18T10:22:13;18.43;66.61
68276;DHT22;55106;51.438;-0.098;2022-10-18T10:24:43;17.85;66.39
68276;DHT22;55106;51.438;-0.098;2022-10-18T10:29:50;17.71;67.88
68276;DHT22;55106;51.438;-0.098;2022-10-18T10:32:19;17.41;69.66
68276;DHT22;55106;51.438;-0.098;2022-10-18T10:34:45;17.46;70.20
68276;DHT22;55106;51.438;-0.098;2022-10-18T10:37:26;17.36;69.36
68276;DHT22;55106;51.438;-0.098;2022-10-18T10:40:12;17.58;68.94
68276;DHT22;55106;51.438;-0.098;2022-10-18T10:45:15;17.36;69.02
68276;DHT22;55106;51.438;-0.098;2022-10-18T10:47:41;17.53;69.05
68276;DHT22;55106;51.438;-0.098;2022-10-18T10:50:11;17.53;68.14
68276;DHT22;55106;51.438;-0.098;2022-10-18T10:52:38;16.88;69.57
68276;DHT22;55106;51.438;-0.098;2022-10-18T10:55:17;16.98;69.29
68276;DHT22;55106;51.438;-0.098;2022-10-18T10:57:45;17.20;70.51
68276;DHT22;55106;51.438;-0.098;2022-10-18T11:00:51;17.12;68.98
68276;DHT22;55106;51.438;-0.098;2022-10-18T11:03:19;17.23;67.72
68276;DHT22;55106;51.438;-0.098;2022-10-18T11:05:54;16.85;68.28
68276;DHT22;55106;51.438;-0.098;2022-10-18T11:08:35;17.27;67.21
68276;DHT22;55106;51.438;-0.098;2022-10-18T11:11:18;17.57;66.75
68276;DHT22;55106;51.438;-0.098;2022-10-18T11:13:50;17.46;66.13
68276;DHT22;55106;51.438;-0.098;2022-10-18T11:17:03;17.82;65.36
68276;DHT22;55106;51.438;-0.098;2022-10-18T11:19:33;18.05;64.63
68276;DHT22;55106;51.438;-0.098;2022-10-18T11:22:08;18.19;63.34
68276;DHT22;55106;51.438;-0.098;2022-10-18T11:24:36;17.81;63.70
68276;DHT22;55106;51.438;-0.098;2022-10-18T11:33:26;16.71;66.88
68276;DHT22;55106;51.438;-0.098;2022-10-18T11:36:08;16.76;67.77
68276;DHT22;55106;51.438;-0.098;2022-10-18T11:41:18;16.41;68.40
68276;DHT22;55106;51.438;-0.098;2022-10-18T11:43:57;16.42;67.78
68276;DHT22;55106;51.438;-0.098;2022-10-18T11:46:38;16.34;68.48
68276;DHT22;55106;51.438;-0.098;2022-10-18T11:52:01;16.37;67.90
68276;DHT22;55106;51.438;-0.098;2022-10-18T11:57:35;16.57;68.80
68276;DHT22;55106;51.438;-0.098;2022-10-18T12:05:25;16.40;69.16
68276;DHT22;55106;51.438;-0.098;2022-10-18T12:10:23;16.44;67.76
68276;DHT22;55106;51.438;-0.098;2022-10-18T12:12:55;16.41;68.97
68276;DHT22;55106;51.438;-0.098;2022-10-18T12:15:24;16.54;68.28
68276;DHT22;55106;51.438;-0.098;2022-10-18T12:17:55;16.52;68.11
68276;DHT22;55106;51.438;-0.098;2022-10-18T12:20:26;16.48;68.75
68276;DHT22;55106;51.438;-0.098;2022-10-18T12:23:04;16.40;68.19
68276;DHT22;55106;51.438;-0.098;2022-10-18T12:25:40;16.27;68.18
68276;DHT22;55106;51.438;-0.098;2022-10-18T12:33:29;16.54;68.69
68276;DHT22;55106;51.438;-0.098;2022-10-18T12:37:03;16.57;68.91
68276;DHT22;55106;51.438;-0.098;2022-10-18T12:38:59;16.67;69.35
68276;DHT22;55106;51.438;-0.098;2022-10-18T12:41:28;16.48;69.64
68276;DHT22;55106;51.438;-0.098;2022-10-18T12:44:05;16.61;69.71
68276;DHT22;55106;51.438;-0.098;2022-10-18T12:49:11;16.50;69.20
68276;DHT22;55106;51.438;-0.098;2022-10-18T12:51:49;16.47;69.96
68276;DHT22;55106;51.438;-0.098;2022-10-18T12:54:15;16.57;69.73
68276;DHT22;55106;51.438;-0.098;2022-10-18T12:56:42;16.52;69.01
68276;DHT22;55106;51.438;-0.098;2022-10-18T13:04:33;16.59;69.10
68276;DHT22;55106;51.438;-0.098;2022-10-18T13:09:38;16.59;69.70
68276;DHT22;55106;51.438;-0.098;2022-10-18T13:18:13;16.52;70.76
68276;DHT22;55106;51.438;-0.098;2022-10-18T13:26:21;16.61;69.84
68276;DHT22;55106;51.438;-0.098;2022-10-18T13:31:34;16.71;70.27
68276;DHT22;55106;51.438;-0.098;2022-10-18T13:39:21;16.75;70.70
68276;DHT22;55106;51.438;-0.098;2022-10-18T13:51:52;16.68;71.96
68276;DHT22;55106;51.438;-0.098;2022-10-18T14:08:19;16.59;69.31
68276;DHT22;55106;51.438;-0.098;2022-10-18T14:13:46;16.62;70.20
68276;DHT22;55106;51.438;-0.098;2022-10-18T14:19:41;16.55;70.05
68276;DHT22;55106;51.438;-0.098;2022-10-18T14:22:21;16.54;69.43
68276;DHT22;55106;51.438;-0.098;2022-10-18T14:24:56;16.59;70.13
68276;DHT22;55106;51.438;-0.098;2022-10-18T14:27:31;16.50;70.37
68276;DHT22;55106;51.438;-0.098;2022-10-18T14:30:26;16.58;70.55
68276;DHT22;55106;51.438;-0.098;2022-10-18T14:32:51;16.59;70.63
68276;DHT22;55106;51.438;-0.098;2022-10-18T14:35:27;16.61;70.28
68276;DHT22;55106;51.438;-0.098;2022-10-18T14:37:54;16.57;70.77
68276;DHT22;55106;51.438;-0.098;2022-10-18T14:40:36;16.51;71.01
68276;DHT22;55106;51.438;-0.098;2022-10-18T14:43:14;16.48;70.56
68276;DHT22;55106;51.438;-0.098;2022-10-18T14:45:41;16.47;71.03
68276;DHT22;55106;51.438;-0.098;2022-10-18T14:48:20;16.42;71.11
68276;DHT22;55106;51.438;-0.098;2022-10-18T14:50:51;16.41;70.88
68276;DHT22;55106;51.438;-0.098;2022-10-18T14:53:23;16.40;69.67
68276;DHT22;55106;51.438;-0.098;2022-10-18T14:55:58;16.41;69.65
68276;DHT22;55106;51.438;-0.098;2022-10-18T14:58:30;16.42;69.97
68276;DHT22;55106;51.438;-0.098;2022-10-18T15:00:57;16.40;70.34
68276;DHT22;55106;51.438;-0.098;2022-10-18T15:03:23;16.30;71.01
68276;DHT22;55106;51.438;-0.098;2022-10-18T15:05:58;16.21;71.46
68276;DHT22;55106;51.438;-0.098;2022-10-18T15:08:26;16.30;71.47
68276;DHT22;55106;51.438;-0.098;2022-10-18T15:13:49;16.16;71.67
68276;DHT22;55106;51.438;-0.098;2022-10-18T15:16:17;16.03;71.99
68276;DHT22;55106;51.438;-0.098;2022-10-18T15:18:43;15.99;72.40
68276;DHT22;55106;51.438;-0.098;2022-10-18T15:21:23;16.00;72.57
68276;DHT22;55106;51.438;-0.098;2022-10-18T15:23:49;15.92;73.41
68276;DHT22;55106;51.438;-0.098;2022-10-18T15:26:27;15.90;73.42
68276;DHT22;55106;51.438;-0.098;2022-10-18T15:28:56;15.89;73.16
68276;DHT22;55106;51.438;-0.098;2022-10-18T15:31:32;15.85;73.89
68276;DHT22;55106;51.438;-0.098;2022-10-18T15:34:09;15.87;73.32
68276;DHT22;55106;51.438;-0.098;2022-10-18T15:36:35;15.92;73.55
68276;DHT22;55106;51.438;-0.098;2022-10-18T15:39:19;15.82;73.94
68276;DHT22;55106;51.438;-0.098;2022-10-18T15:44:17;15.79;74.13
68276;DHT22;55106;51.438;-0.098;2022-10-18T15:52:41;15.66;74.71
68276;DHT22;55106;51.438;-0.098;2022-10-18T15:58:02;15.56;75.33
68276;DHT22;55106;51.438;-0.098;2022-10-18T16:00:27;15.46;75.52
68276;DHT22;55106;51.438;-0.098;2022-10-18T16:02:53;15.46;75.50
68276;DHT22;55106;51.438;-0.098;2022-10-18T16:05:18;15.41;75.52
68276;DHT22;55106;51.438;-0.098;2022-10-18T16:07:50;15.36;75.74
68276;DHT22;55106;51.438;-0.098;2022-10-18T16:10:15;15.30;75.98
68276;DHT22;55106;51.438;-0.098;2022-10-18T16:12:41;15.25;75.76
68276;DHT22;55106;51.438;-0.098;2022-10-18T16:15:06;15.23;75.84
68276;DHT22;55106;51.438;-0.098;2022-10-18T16:17:32;15.20;75.87
68276;DHT22;55106;51.438;-0.098;2022-10-18T16:19:57;15.07;76.49
68276;DHT22;55106;51.438;-0.098;2022-10-18T16:22:23;15.00;76.04
68276;DHT22;55106;51.438;-0.098;2022-10-18T16:24:48;14.93;75.84
68276;DHT22;55106;51.438;-0.098;2022-10-18T16:27:13;14.88;75.72
68276;DHT22;55106;51.438;-0.098;2022-10-18T16:29:39;14.83;75.28
68276;DHT22;55106;51.438;-0.098;2022-10-18T16:32:05;14.79;75.99
68276;DHT22;55106;51.438;-0.098;2022-10-18T16:34:31;14.69;76.20
68276;DHT22;55106;51.438;-0.098;2022-10-18T16:36:57;14.76;75.22
68276;DHT22;55106;51.438;-0.098;2022-10-18T16:39:23;14.72;75.37
68276;DHT22;55106;51.438;-0.098;2022-10-18T16:41:49;14.59;75.76
68276;DHT22;55106;51.438;-0.098;2022-10-18T16:44:15;14.52;76.14
68276;DHT22;55106;51.438;-0.098;2022-10-18T16:46:42;14.39;76.61
68276;DHT22;55106;51.438;-0.098;2022-10-18T16:49:17;14.31;76.83
68276;DHT22;55106;51.438;-0.098;2022-10-18T16:51:43;14.24;77.19
68276;DHT22;55106;51.438;-0.098;2022-10-18T16:54:08;14.17;76.85
68276;DHT22;55106;51.438;-0.098;2022-10-18T16:56:34;14.18;76.16
68276;DHT22;55106;51.438;-0.098;2022-10-18T16:58:59;14.17;75.42
68276;DHT22;55106;51.438;-0.098;2022-10-18T17:01:25;14.19;73.82
68276;DHT22;55106;51.438;-0.098;2022-10-18T17:03:53;14.18;73.67
68276;DHT22;55106;51.438;-0.098;2022-10-18T17:06:25;14.21;72.40
68276;DHT22;55106;51.438;-0.098;2022-10-18T17:08:52;14.19;72.13
68276;DHT22;55106;51.438;-0.098;2022-10-18T17:11:20;14.24;71.40
68276;DHT22;55106;51.438;-0.098;2022-10-18T17:13:48;14.12;71.93
68276;DHT22;55106;51.438;-0.098;2022-10-18T17:16:25;14.01;72.32
68276;DHT22;55106;51.438;-0.098;2022-10-18T17:18:56;14.04;71.90
68276;DHT22;55106;51.438;-0.098;2022-10-18T17:21:22;14.00;72.20
68276;DHT22;55106;51.438;-0.098;2022-10-18T17:23:48;13.95;72.68
68276;DHT22;55106;51.438;-0.098;2022-10-18T17:26:19;13.88;72.84
68276;DHT22;55106;51.438;-0.098;2022-10-18T17:28:49;13.84;72.91
68276;DHT22;55106;51.438;-0.098;2022-10-18T17:31:14;13.78;73.39
68276;DHT22;55106;51.438;-0.098;2022-10-18T17:33:43;13.80;72.79
68276;DHT22;55106;51.438;-0.098;2022-10-18T17:36:08;13.71;73.37
68276;DHT22;55106;51.438;-0.098;2022-10-18T17:38:34;13.62;73.77
68276;DHT22;55106;51.438;-0.098;2022-10-18T17:41:07;13.69;73.50
68276;DHT22;55106;51.438;-0.098;2022-10-18T17:43:35;13.64;74.83
68276;DHT22;55106;51.438;-0.098;2022-10-18T17:46:01;13.66;74.56
68276;DHT22;55106;51.438;-0.098;2022-10-18T17:48:26;13.57;75.16
68276;DHT22;55106;51.438;-0.098;2022-10-18T17:50:53;13.56;75.70
68276;DHT22;55106;51.438;-0.098;2022-10-18T17:53:19;13.49;76.78
68276;DHT22;55106;51.438;-0.098;2022-10-18T17:55:47;13.42;77.26
68276;DHT22;55106;51.438;-0.098;2022-10-18T17:58:13;13.44;77.70
68276;DHT22;55106;51.438;-0.098;2022-10-18T18:00:38;13.33;78.55
68276;DHT22;55106;51.438;-0.098;2022-10-18T18:03:03;13.30;78.97
68276;DHT22;55106;51.438;-0.098;2022-10-18T18:05:31;13.26;79.37
68276;DHT22;55106;51.438;-0.098;2022-10-18T18:07:56;13.23;79.69